Pagrindinis puslapis
METAR-TAF:

METAR-TAF

Oro uostai :

Cerklje ob Krki, Slovėnija

platuma: 45-53-59N, ilguma: 15-30-55E, Aukštis: 157 m

Dabartinis oras

Ataskaita buvo paskelbta 35 minutes, ne 19:00 UTC
Vėjas 4 kt iš Rytų/Šiaurės Rytų
Temperatūra 12°C
Drėgmė 71%
Slėgis 1026 hPa
Matomumas 10 km arba daugiau
nėra debesų žemiau 1500 m ir nėra kamuolinių lietaus debesų

METAR: LJCE 191900Z 07004KT CAVOK 12/07 Q1026

Laikas: 21:35 (19:35 UTC)

Prognozė

Ataskaita buvo paskelbta 2 valandos ir 35 minutes, ne 17:00 UTC
Prognozė galioja nuo 19 metu 18 UTC su 20 metu 03 UTC
Vėjas 5 kt iš Rytų/Šiaurės Rytų
Matomumas 10 km arba daugiau
nėra debesų žemiau 1500 m ir nėra kamuolinių lietaus debesų

TAF: LJCE 191700Z 1918/2003 07005KT CAVOK

Orai ataskaitas ir orų prognozės (METAR, TAF).

turimą stotys yra geltonos ir raudonos taškus žemėlapyje.

Perkelti pele per norėdami pamatyti stoties vardą.

Tada spustelėkite, norėdami matyti oro stebėjimo ir prognozės.

Norėdami pakeisti žemėlapį: spustelėkite ant žalios mygtukų su juodo kryžiaus žemyn,; žalią mygtuką su brūkšneliu, jei norite nutolinti; arba žalių rodyklių gretimoms žemėlapius.


METAR-TAF: